createdAt,value
2024-01-04T00:00:05.409Z,6.20
2024-01-04T00:02:33.995Z,4.65
2024-01-04T00:05:01.398Z,5.57
2024-01-04T00:07:31.164Z,3.78
2024-01-04T00:09:58.406Z,4.72
2024-01-04T00:12:26.129Z,4.15
2024-01-04T00:15:07.279Z,4.97
2024-01-04T00:17:34.597Z,5.18
2024-01-04T00:20:02.341Z,4.70
2024-01-04T00:22:32.292Z,5.65
2024-01-04T00:24:59.492Z,4.35
2024-01-04T00:27:26.603Z,5.03
2024-01-04T00:29:54.238Z,4.20
2024-01-04T00:32:21.524Z,5.50
2024-01-04T00:34:48.686Z,4.45
2024-01-04T00:37:15.919Z,6.35
2024-01-04T00:39:43.108Z,4.90
2024-01-04T00:42:10.966Z,4.80
2024-01-04T00:44:38.243Z,4.68
2024-01-04T00:47:05.527Z,6.32
2024-01-04T00:49:33.128Z,6.18
2024-01-04T00:52:00.348Z,5.13
2024-01-04T00:54:27.628Z,6.00
2024-01-04T00:56:55.255Z,6.45
2024-01-04T00:59:23.139Z,5.68
2024-01-04T01:01:50.388Z,5.88
2024-01-04T01:04:17.613Z,7.20
2024-01-04T01:06:45.012Z,5.82
2024-01-04T01:09:12.414Z,7.25
2024-01-04T01:11:39.722Z,6.57
2024-01-04T01:14:07.042Z,5.40
2024-01-04T01:16:34.457Z,5.13
2024-01-04T01:19:01.856Z,5.00
2024-01-04T01:21:29.566Z,5.03
2024-01-04T01:23:56.905Z,6.13
2024-01-04T01:26:24.586Z,5.22
2024-01-04T01:28:51.927Z,4.80
2024-01-04T01:31:19.280Z,6.28
2024-01-04T01:33:47.264Z,5.00
2024-01-04T01:36:15.562Z,4.68
2024-01-04T01:38:42.891Z,6.20
2024-01-04T01:41:10.054Z,5.05
2024-01-04T01:43:37.377Z,5.25
2024-01-04T01:46:04.977Z,4.65
2024-01-04T01:48:32.574Z,5.15
2024-01-04T01:51:00.396Z,4.45
2024-01-04T01:53:28.388Z,4.32
2024-01-04T01:55:56.435Z,4.40
2024-01-04T01:58:23.695Z,3.85
2024-01-04T02:00:51.393Z,3.95
2024-01-04T02:03:19.337Z,6.07
2024-01-04T02:05:46.824Z,3.95
2024-01-04T02:08:14.207Z,5.13
2024-01-04T02:10:41.413Z,4.15
2024-01-04T02:13:10.473Z,4.10
2024-01-04T02:15:37.966Z,3.63
2024-01-04T02:18:05.853Z,4.30
2024-01-04T02:20:53.951Z,4.40
2024-01-04T02:23:21.377Z,5.47
2024-01-04T02:25:48.437Z,4.32
2024-01-04T02:28:15.592Z,4.45
2024-01-04T02:30:42.807Z,3.60
2024-01-04T02:33:10.364Z,4.82
2024-01-04T02:35:37.858Z,4.50
2024-01-04T02:38:05.306Z,4.97
2024-01-04T02:40:32.516Z,4.32
2024-01-04T02:42:59.917Z,3.92
2024-01-04T02:45:29.660Z,3.53
2024-01-04T02:47:57.291Z,4.25
2024-01-04T02:50:24.787Z,4.88
2024-01-04T02:52:51.873Z,4.22
2024-01-04T02:55:20.952Z,4.03
2024-01-04T02:57:48.648Z,4.68
2024-01-04T03:00:18.690Z,4.72
2024-01-04T03:02:46.270Z,4.10
2024-01-04T03:05:13.695Z,4.20
2024-01-04T03:07:40.922Z,3.88
2024-01-04T03:10:08.748Z,4.22
2024-01-04T03:12:38.804Z,4.85
2024-01-04T03:15:08.405Z,3.78
2024-01-04T03:17:35.781Z,3.40
2024-01-04T03:20:04.640Z,3.72
2024-01-04T03:22:31.806Z,3.50
2024-01-04T03:24:59.110Z,3.42
2024-01-04T03:27:26.242Z,3.45
2024-01-04T03:29:55.951Z,5.70
2024-01-04T03:32:23.926Z,4.57
2024-01-04T03:34:52.192Z,4.10
2024-01-04T03:37:19.433Z,4.22
2024-01-04T03:39:46.673Z,3.92
2024-01-04T03:42:15.182Z,4.20
2024-01-04T03:44:43.588Z,3.65
2024-01-04T03:47:12.203Z,4.68
2024-01-04T03:49:39.356Z,4.45
2024-01-04T03:52:06.662Z,3.10
2024-01-04T03:54:34.058Z,3.42
2024-01-04T03:57:01.222Z,4.45
2024-01-04T03:59:28.368Z,3.33
2024-01-04T04:01:55.583Z,3.30
2024-01-04T04:04:22.701Z,3.55
2024-01-04T04:06:50.220Z,3.60
2024-01-04T04:09:19.738Z,3.67
2024-01-04T04:11:49.146Z,3.85
2024-01-04T04:14:16.693Z,3.22
2024-01-04T04:16:43.823Z,3.30
2024-01-04T04:19:11.410Z,3.28
2024-01-04T04:21:38.797Z,3.80
2024-01-04T04:24:07.466Z,4.38
2024-01-04T04:26:34.665Z,3.10
2024-01-04T04:29:01.806Z,3.47
2024-01-04T04:31:29.021Z,3.20
2024-01-04T04:33:56.273Z,3.47
2024-01-04T04:36:23.545Z,3.80
2024-01-04T04:38:50.825Z,3.20
2024-01-04T04:41:18.057Z,3.75
2024-01-04T04:43:47.372Z,4.60
2024-01-04T04:46:14.915Z,4.57
2024-01-04T04:48:42.206Z,3.10
2024-01-04T04:51:11.480Z,5.00
2024-01-04T04:53:38.849Z,3.85
2024-01-04T04:56:06.681Z,3.60
2024-01-04T04:58:33.869Z,4.13
2024-01-04T05:01:01.063Z,3.35
2024-01-04T05:03:28.345Z,3.08
2024-01-04T05:05:55.589Z,3.92
2024-01-04T05:08:24.207Z,3.00
2024-01-04T05:10:51.340Z,3.53
2024-01-04T05:13:18.578Z,4.40
2024-01-04T05:15:45.843Z,3.47
2024-01-04T05:18:13.511Z,3.55
2024-01-04T05:20:44.507Z,3.20
2024-01-04T05:23:11.982Z,3.08
2024-01-04T05:25:41.979Z,3.25
2024-01-04T05:28:10.902Z,3.47
2024-01-04T05:30:38.875Z,3.33
2024-01-04T05:33:06.450Z,4.03
2024-01-04T05:35:36.245Z,3.70
2024-01-04T05:38:04.554Z,4.43
2024-01-04T05:40:32.255Z,3.78
2024-01-04T05:43:00.279Z,4.35
2024-01-04T05:45:27.663Z,4.10
2024-01-04T05:47:54.931Z,3.70
2024-01-04T05:50:22.212Z,4.10
2024-01-04T05:52:49.501Z,3.00
2024-01-04T05:55:17.189Z,3.75
2024-01-04T05:57:45.317Z,3.95
2024-01-04T06:00:15.320Z,3.33
2024-01-04T06:02:44.419Z,3.58
2024-01-04T06:05:11.664Z,4.65
2024-01-04T06:07:39.037Z,4.15
2024-01-04T06:10:07.060Z,3.75
2024-01-04T06:12:34.516Z,2.65
2024-01-04T06:15:04.622Z,2.97
2024-01-04T06:17:33.020Z,4.80
2024-01-04T06:20:00.219Z,2.80
2024-01-04T06:22:27.358Z,2.72
2024-01-04T06:24:54.647Z,2.90
2024-01-04T06:27:21.806Z,3.38
2024-01-04T06:29:48.985Z,4.47
2024-01-04T06:32:16.016Z,4.60
2024-01-04T06:34:43.373Z,3.78
2024-01-04T06:37:11.628Z,3.97
2024-01-04T06:39:38.814Z,3.45
2024-01-04T06:42:06.308Z,2.90
2024-01-04T06:44:41.554Z,3.50
2024-01-04T06:47:15.702Z,3.63
2024-01-04T06:49:43.350Z,3.83
2024-01-04T06:52:10.482Z,3.08
2024-01-04T06:54:37.881Z,3.83
2024-01-04T06:57:07.967Z,3.30
2024-01-04T06:59:36.181Z,3.90
2024-01-04T07:02:06.318Z,4.53
2024-01-04T07:04:33.841Z,3.58
2024-01-04T07:07:01.044Z,3.85
2024-01-04T07:09:28.285Z,3.80
2024-01-04T07:11:55.659Z,3.05
2024-01-04T07:14:22.816Z,3.28
2024-01-04T07:16:50.884Z,4.15
2024-01-04T07:19:18.240Z,4.47
2024-01-04T07:21:45.437Z,4.03
2024-01-04T07:24:12.849Z,5.60
2024-01-04T07:26:39.959Z,4.25
2024-01-04T07:29:07.291Z,4.25
2024-01-04T07:31:34.349Z,5.00
2024-01-04T07:34:02.256Z,6.05
2024-01-04T07:36:30.279Z,4.65
2024-01-04T07:38:59.715Z,5.35
2024-01-04T07:41:26.979Z,5.30
2024-01-04T07:43:54.647Z,5.75
2024-01-04T07:46:21.749Z,4.70
2024-01-04T07:48:49.289Z,4.72
2024-01-04T07:51:16.604Z,4.97
2024-01-04T07:53:43.845Z,3.95
2024-01-04T07:56:11.094Z,4.43
2024-01-04T07:58:38.389Z,4.53
2024-01-04T08:01:05.771Z,3.85
2024-01-04T08:03:33.171Z,5.38
2024-01-04T08:06:01.185Z,5.13
2024-01-04T08:08:28.833Z,5.78
2024-01-04T08:10:56.168Z,6.10
2024-01-04T08:13:23.311Z,6.05
2024-01-04T08:15:53.775Z,6.15
2024-01-04T08:18:25.498Z,4.43
2024-01-04T08:20:55.816Z,4.63
2024-01-04T08:23:23.108Z,5.25
2024-01-04T08:25:55.229Z,5.60
2024-01-04T08:28:32.946Z,4.50
2024-01-04T08:31:04.198Z,4.03
2024-01-04T08:33:35.216Z,4.80
2024-01-04T08:36:03.109Z,4.05
2024-01-04T08:38:31.743Z,3.63
2024-01-04T08:41:01.895Z,2.80
2024-01-04T08:43:29.250Z,3.60
2024-01-04T08:45:56.387Z,4.70
2024-01-04T08:48:23.877Z,4.30
2024-01-04T08:50:51.699Z,4.35
2024-01-04T08:53:21.856Z,3.90
2024-01-04T08:55:56.812Z,3.90
2024-01-04T08:58:23.971Z,4.55
2024-01-04T09:00:53.870Z,3.75
2024-01-04T09:03:21.631Z,3.60
2024-01-04T09:05:49.550Z,3.20
2024-01-04T09:08:16.974Z,3.40
2024-01-04T09:10:44.077Z,3.05
2024-01-04T09:13:11.189Z,2.75
2024-01-04T09:15:38.300Z,2.55
2024-01-04T09:18:05.749Z,2.60
2024-01-04T09:20:33.481Z,2.70
2024-01-04T09:23:00.615Z,2.92
2024-01-04T09:25:29.601Z,3.17
2024-01-04T09:28:01.349Z,2.63
2024-01-04T09:30:30.810Z,2.90
2024-01-04T09:33:08.251Z,3.72
2024-01-04T09:35:35.455Z,3.38
2024-01-04T09:38:03.195Z,3.65
2024-01-04T09:40:31.048Z,4.82
2024-01-04T09:43:00.941Z,3.42
2024-01-04T09:45:31.166Z,3.70
2024-01-04T09:48:01.632Z,4.38
2024-01-04T09:50:30.868Z,4.65
2024-01-04T09:52:59.604Z,4.30
2024-01-04T09:55:26.949Z,4.65
2024-01-04T09:57:54.248Z,4.07
2024-01-04T10:00:21.579Z,3.33
2024-01-04T10:02:51.070Z,4.45
2024-01-04T10:05:21.648Z,3.47
2024-01-04T10:07:58.032Z,4.05
2024-01-04T10:10:31.289Z,3.80
2024-01-04T10:13:00.555Z,4.60
2024-01-04T10:15:27.671Z,4.35
2024-01-04T10:17:57.251Z,4.70
2024-01-04T10:20:24.661Z,4.38
2024-01-04T10:22:51.831Z,4.00
2024-01-04T10:25:20.084Z,4.25
2024-01-04T10:28:00.525Z,5.88
2024-01-04T10:30:28.421Z,4.28
2024-01-04T10:32:56.006Z,4.93
2024-01-04T10:35:31.368Z,4.28
2024-01-04T10:38:00.656Z,4.10
2024-01-04T10:40:31.878Z,4.10
2024-01-04T10:43:00.398Z,3.83
2024-01-04T10:45:33.790Z,4.03
2024-01-04T10:48:01.544Z,3.45
2024-01-04T10:50:31.677Z,4.03
2024-01-04T10:53:04.060Z,4.80
2024-01-04T10:55:31.543Z,4.78
2024-01-04T10:57:59.856Z,3.95
2024-01-04T11:00:29.487Z,3.50
2024-01-04T11:02:58.708Z,3.67
2024-01-04T11:05:26.418Z,4.65
2024-01-04T11:07:57.390Z,3.45
2024-01-04T11:10:25.270Z,3.53
2024-01-04T11:12:54.040Z,3.63
2024-01-04T11:15:21.576Z,4.00
2024-01-04T11:18:26.656Z,4.03
2024-01-04T11:21:00.328Z,3.20
2024-01-04T11:23:30.818Z,3.47
2024-01-04T11:26:31.228Z,5.03
2024-01-04T11:29:07.832Z,3.70
2024-01-04T11:31:40.028Z,3.63
2024-01-04T11:34:10.317Z,4.53
2024-01-04T11:36:37.747Z,2.67
2024-01-04T11:39:05.612Z,4.57
2024-01-04T11:41:36.439Z,2.60
2024-01-04T11:44:15.792Z,3.63
2024-01-04T11:46:44.597Z,5.00
2024-01-04T11:49:17.428Z,3.97
2024-01-04T11:51:46.593Z,3.78
2024-01-04T11:54:16.952Z,4.30
2024-01-04T11:56:45.479Z,4.13
2024-01-04T11:59:14.605Z,2.92
2024-01-04T12:01:43.791Z,3.40
2024-01-04T12:04:16.424Z,4.03
2024-01-04T12:06:48.553Z,3.85
2024-01-04T12:09:19.405Z,3.45
2024-01-04T12:11:58.932Z,3.90
2024-01-04T12:14:27.487Z,3.50
2024-01-04T12:16:55.202Z,3.78
2024-01-04T12:19:22.611Z,3.92
2024-01-04T12:21:50.371Z,4.22
2024-01-04T12:24:18.274Z,2.83
2024-01-04T12:26:47.282Z,3.35
2024-01-04T12:29:15.631Z,3.95
2024-01-04T12:31:46.181Z,3.30
2024-01-04T12:34:17.791Z,3.85
2024-01-04T12:36:46.516Z,3.60
2024-01-04T12:39:15.084Z,4.03
2024-01-04T12:41:47.983Z,3.00
2024-01-04T12:44:16.401Z,2.70
2024-01-04T12:46:45.544Z,4.07
2024-01-04T12:49:16.708Z,2.90
2024-01-04T12:51:47.976Z,2.80
2024-01-04T12:54:15.601Z,2.85
2024-01-04T12:56:43.071Z,3.50
2024-01-04T12:59:12.356Z,4.00
2024-01-04T13:01:39.973Z,3.67
2024-01-04T13:04:09.288Z,2.85
2024-01-04T13:06:37.137Z,3.53
2024-01-04T13:09:05.101Z,3.35
2024-01-04T13:11:32.593Z,2.90
2024-01-04T13:14:01.515Z,2.30
2024-01-04T13:16:29.934Z,2.95
2024-01-04T13:18:57.707Z,2.58
2024-01-04T13:21:25.353Z,2.88
2024-01-04T13:23:52.816Z,2.88
2024-01-04T13:26:20.253Z,2.78
2024-01-04T13:28:47.765Z,2.40
2024-01-04T13:31:15.446Z,4.32
2024-01-04T13:33:43.325Z,3.05
2024-01-04T13:36:11.070Z,4.50
2024-01-04T13:38:38.500Z,2.75
2024-01-04T13:41:06.043Z,2.67
2024-01-04T13:43:33.883Z,2.95
2024-01-04T13:46:02.116Z,2.38
2024-01-04T13:48:32.012Z,3.17
2024-01-04T13:50:59.724Z,2.70
2024-01-04T13:53:27.476Z,2.25
2024-01-04T13:55:55.172Z,2.47
2024-01-04T13:58:22.957Z,2.78
2024-01-04T14:00:50.600Z,2.88
2024-01-04T14:03:20.506Z,2.55
2024-01-04T14:05:54.322Z,2.47
2024-01-04T14:08:25.007Z,3.25
2024-01-04T14:10:57.343Z,3.00
2024-01-04T14:13:25.545Z,2.83
2024-01-04T14:15:53.184Z,2.50
2024-01-04T14:18:20.987Z,2.90
2024-01-04T14:20:48.489Z,2.95
2024-01-04T14:23:15.700Z,3.20
2024-01-04T14:25:43.097Z,4.30
2024-01-04T14:28:10.525Z,2.85
2024-01-04T14:30:38.565Z,3.05
2024-01-04T14:33:06.587Z,4.07
2024-01-04T14:35:34.780Z,3.15
2024-01-04T14:38:03.198Z,2.85
2024-01-04T14:40:30.491Z,4.15
2024-01-04T14:42:58.981Z,3.75
2024-01-04T14:45:29.623Z,4.00
2024-01-04T14:47:57.762Z,3.75
2024-01-04T14:50:25.476Z,4.00
2024-01-04T14:52:52.828Z,3.95
2024-01-04T14:55:26.806Z,3.70
2024-01-04T14:57:54.269Z,3.80
2024-01-04T15:00:21.805Z,3.53
2024-01-04T15:02:49.585Z,3.67
2024-01-04T15:05:17.339Z,3.90
2024-01-04T15:07:45.284Z,4.82
2024-01-04T15:10:12.943Z,4.25
2024-01-04T15:12:41.156Z,4.75
2024-01-04T15:15:20.579Z,7.22
2024-01-04T15:17:54.242Z,6.70
2024-01-04T15:20:23.609Z,4.70
2024-01-04T15:22:50.974Z,4.05
2024-01-04T15:25:18.245Z,4.50
2024-01-04T15:27:45.692Z,4.10
2024-01-04T15:30:16.563Z,5.93
2024-01-04T15:32:44.481Z,4.90
2024-01-04T15:35:11.635Z,4.55
2024-01-04T15:37:38.833Z,4.07
2024-01-04T15:40:08.210Z,4.47
2024-01-04T15:42:35.394Z,3.55
2024-01-04T15:45:02.732Z,4.20
2024-01-04T15:47:31.539Z,5.80
2024-01-04T15:49:58.914Z,3.83
2024-01-04T15:52:26.279Z,6.57
2024-01-04T15:54:54.479Z,5.53
2024-01-04T15:57:21.994Z,6.00
2024-01-04T15:59:49.345Z,4.90
2024-01-04T16:02:16.520Z,8.00
2024-01-04T16:04:43.782Z,7.18
2024-01-04T16:07:13.183Z,8.38
2024-01-04T16:09:40.446Z,7.13
2024-01-04T16:12:07.988Z,7.28
2024-01-04T16:14:36.237Z,5.82
2024-01-04T16:17:04.466Z,5.97
2024-01-04T16:19:31.746Z,6.80
2024-01-04T16:21:59.948Z,7.55
2024-01-04T16:24:27.509Z,9.23
2024-01-04T16:26:54.916Z,8.30
2024-01-04T16:29:22.325Z,7.50
2024-01-04T16:31:49.613Z,7.18
2024-01-04T16:34:17.409Z,6.45
2024-01-04T16:36:44.869Z,7.97
2024-01-04T16:39:14.285Z,9.57
2024-01-04T16:41:47.140Z,7.68
2024-01-04T16:44:16.054Z,6.90
2024-01-04T16:46:43.466Z,5.57
2024-01-04T16:49:13.785Z,4.65
2024-01-04T16:51:41.654Z,4.90
2024-01-04T16:54:10.112Z,3.85
2024-01-04T16:56:37.574Z,3.33
2024-01-04T16:59:05.460Z,3.47
2024-01-04T17:01:52.583Z,3.22
2024-01-04T17:04:39.924Z,3.35
2024-01-04T17:07:07.575Z,3.88
2024-01-04T17:09:35.066Z,4.25
2024-01-04T17:12:06.138Z,6.72
2024-01-04T17:14:34.357Z,7.47
2024-01-04T17:17:01.661Z,6.47
2024-01-04T17:19:34.061Z,5.15
2024-01-04T17:22:04.703Z,4.03
2024-01-04T17:24:33.301Z,4.03
2024-01-04T17:27:01.557Z,4.30
2024-01-04T17:29:29.681Z,3.63
2024-01-04T17:31:57.264Z,3.80
2024-01-04T17:34:24.890Z,2.83
2024-01-04T17:36:52.297Z,3.15
2024-01-04T17:39:20.807Z,3.13
2024-01-04T17:41:50.022Z,3.40
2024-01-04T17:44:19.188Z,3.33
2024-01-04T17:46:47.417Z,4.22
2024-01-04T17:49:15.461Z,7.90
2024-01-04T17:51:43.474Z,9.32
2024-01-04T17:54:10.988Z,7.85
2024-01-04T17:56:38.149Z,6.15
2024-01-04T17:59:06.579Z,6.00
2024-01-04T18:01:40.295Z,4.93
2024-01-04T18:04:08.561Z,5.32
2024-01-04T18:06:36.025Z,6.57
2024-01-04T18:09:03.478Z,11.07
2024-01-04T18:11:32.746Z,12.00
2024-01-04T18:14:00.493Z,14.02
2024-01-04T18:16:28.310Z,12.32
2024-01-04T18:18:56.054Z,10.07
2024-01-04T18:21:24.998Z,8.25
2024-01-04T18:23:59.866Z,6.80
2024-01-04T18:26:33.224Z,6.60
2024-01-04T18:29:01.543Z,7.72
2024-01-04T18:31:29.551Z,8.45
2024-01-04T18:33:57.391Z,6.47
2024-01-04T18:36:28.182Z,5.88
2024-01-04T18:39:01.634Z,5.05
2024-01-04T18:41:33.714Z,3.40
2024-01-04T18:44:01.472Z,2.97
2024-01-04T18:46:34.402Z,3.95
2024-01-04T18:49:01.976Z,3.75
2024-01-04T18:51:29.382Z,3.70
2024-01-04T18:53:56.940Z,2.95
2024-01-04T18:56:26.156Z,3.65
2024-01-04T18:58:53.570Z,3.00
2024-01-04T19:01:24.241Z,2.97
2024-01-04T19:03:51.786Z,2.90
2024-01-04T19:06:19.064Z,2.72
2024-01-04T19:08:46.507Z,3.25
2024-01-04T19:11:13.826Z,2.80
2024-01-04T19:13:41.246Z,3.05
2024-01-04T19:16:10.155Z,3.33
2024-01-04T19:18:50.943Z,2.88
2024-01-04T19:21:21.136Z,4.05
2024-01-04T19:23:48.733Z,3.60
2024-01-04T19:26:16.176Z,4.40
2024-01-04T19:28:46.927Z,2.90
2024-01-04T19:31:21.468Z,4.03
2024-01-04T19:33:52.335Z,9.05
2024-01-04T19:36:20.077Z,13.25
2024-01-04T19:38:48.119Z,7.90
2024-01-04T19:41:16.247Z,4.15
2024-01-04T19:43:43.893Z,4.05
2024-01-04T19:46:11.972Z,3.38
2024-01-04T19:48:40.267Z,2.88
2024-01-04T19:51:08.660Z,3.03
2024-01-04T19:53:42.625Z,2.55
2024-01-04T19:56:10.203Z,2.92
2024-01-04T19:58:38.078Z,2.15
2024-01-04T20:01:06.828Z,3.22
2024-01-04T20:03:35.117Z,3.55
2024-01-04T20:06:03.951Z,2.72
2024-01-04T20:08:31.879Z,2.83
2024-01-04T20:11:02.167Z,2.75
2024-01-04T20:13:40.037Z,3.13
2024-01-04T20:16:07.991Z,3.65
2024-01-04T20:18:43.651Z,2.83
2024-01-04T20:21:30.988Z,2.90
2024-01-04T20:24:02.585Z,4.32
2024-01-04T20:26:30.319Z,3.28
2024-01-04T20:29:01.317Z,3.22
2024-01-04T20:31:30.601Z,4.65
2024-01-04T20:33:59.534Z,4.13
2024-01-04T20:36:27.235Z,3.55
2024-01-04T20:38:55.786Z,3.92
2024-01-04T20:41:23.199Z,3.47
2024-01-04T20:43:56.037Z,3.35
2024-01-04T20:46:28.506Z,3.10
2024-01-04T20:48:56.996Z,3.55
2024-01-04T20:51:24.606Z,3.78
2024-01-04T20:54:02.441Z,2.42
2024-01-04T20:56:30.826Z,2.60
2024-01-04T20:58:58.224Z,2.30
2024-01-04T21:01:26.903Z,3.67
2024-01-04T21:03:59.619Z,3.35
2024-01-04T21:06:27.755Z,3.15
2024-01-04T21:08:55.529Z,2.90
2024-01-04T21:11:24.521Z,2.53
2024-01-04T21:14:11.965Z,2.60
2024-01-04T21:16:42.512Z,2.97
2024-01-04T21:19:09.901Z,2.53
2024-01-04T21:21:37.076Z,2.63
2024-01-04T21:24:04.524Z,2.60
2024-01-04T21:26:32.416Z,2.40
2024-01-04T21:29:00.008Z,1.70
2024-01-04T21:31:27.307Z,2.22
2024-01-04T21:33:54.743Z,2.28
2024-01-04T21:36:22.984Z,2.60
2024-01-04T21:39:21.535Z,2.50
2024-01-04T21:41:50.332Z,3.55
2024-01-04T21:44:17.735Z,2.58
2024-01-04T21:46:51.030Z,2.45
2024-01-04T21:49:22.686Z,2.53
2024-01-04T21:51:52.671Z,2.05
2024-01-04T21:54:20.153Z,2.58
2024-01-04T21:56:47.593Z,2.53
2024-01-04T21:59:34.937Z,2.83
2024-01-04T22:02:19.205Z,3.67
2024-01-04T22:04:50.100Z,3.50
2024-01-04T22:07:19.206Z,3.65
2024-01-04T22:09:46.751Z,3.53
2024-01-04T22:12:14.314Z,2.83
2024-01-04T22:14:41.610Z,3.45
2024-01-04T22:17:09.331Z,3.67
2024-01-04T22:19:37.069Z,3.33
2024-01-04T22:22:04.915Z,2.40
2024-01-04T22:24:32.484Z,2.67
2024-01-04T22:27:00.572Z,2.38
2024-01-04T22:29:33.073Z,3.58
2024-01-04T22:32:02.906Z,2.15
2024-01-04T22:34:34.813Z,2.83
2024-01-04T22:37:02.741Z,2.70
2024-01-04T22:39:30.338Z,3.30
2024-01-04T22:41:57.838Z,3.05
2024-01-04T22:44:25.280Z,3.70
2024-01-04T22:46:52.937Z,3.42
2024-01-04T22:49:20.580Z,2.55
2024-01-04T22:51:48.457Z,2.75
2024-01-04T22:54:15.970Z,2.83
2024-01-04T22:56:43.844Z,2.60
2024-01-04T22:59:11.517Z,3.08
2024-01-04T23:01:38.682Z,2.40
2024-01-04T23:04:06.315Z,3.65
2024-01-04T23:06:34.247Z,2.10
2024-01-04T23:09:01.442Z,2.70
2024-01-04T23:11:28.912Z,2.83
2024-01-04T23:13:56.041Z,3.15
2024-01-04T23:16:23.256Z,3.20
2024-01-04T23:18:50.842Z,3.22
2024-01-04T23:21:18.262Z,3.03
2024-01-04T23:23:47.020Z,2.80
2024-01-04T23:26:14.185Z,2.13
2024-01-04T23:28:41.577Z,2.58
2024-01-04T23:31:08.800Z,3.75
2024-01-04T23:33:40.467Z,4.38
2024-01-04T23:36:10.867Z,2.90
2024-01-04T23:38:38.316Z,2.05
2024-01-04T23:41:06.266Z,2.35
2024-01-04T23:43:33.485Z,3.08
2024-01-04T23:46:00.589Z,2.50
2024-01-04T23:48:27.942Z,2.28
2024-01-04T23:50:55.459Z,1.50
2024-01-04T23:53:22.798Z,2.08
2024-01-04T23:55:49.943Z,2.88
2024-01-04T23:58:17.461Z,2.33
